sensor_id;sensor_type;location;lat;lon;timestamp;pressure;altitude;pressure_sealevel;temperature;humidity
3082;BME280;1551;51.046;7.010;2023-05-10T00:00:17;100154.97;;;15.29;97.00
3082;BME280;1551;51.046;7.010;2023-05-10T00:03:06;100154.88;;;15.32;96.87
3082;BME280;1551;51.046;7.010;2023-05-10T00:05:55;100150.91;;;15.23;97.85
3082;BME280;1551;51.046;7.010;2023-05-10T00:08:44;100158.53;;;15.26;98.17
3082;BME280;1551;51.046;7.010;2023-05-10T00:11:34;100111.81;;;15.12;97.60
3082;BME280;1551;51.046;7.010;2023-05-10T00:14:23;100153.91;;;15.34;97.15
3082;BME280;1551;51.046;7.010;2023-05-10T00:17:13;100154.16;;;15.28;96.83
3082;BME280;1551;51.046;7.010;2023-05-10T00:20:02;100152.81;;;15.18;96.78
3082;BME280;1551;51.046;7.010;2023-05-10T00:22:53;100152.75;;;15.20;97.58
3082;BME280;1551;51.046;7.010;2023-05-10T00:25:42;100157.91;;;15.20;97.74
3082;BME280;1551;51.046;7.010;2023-05-10T00:28:31;100153.38;;;15.26;97.59
3082;BME280;1551;51.046;7.010;2023-05-10T00:31:20;100154.19;;;15.27;97.25
3082;BME280;1551;51.046;7.010;2023-05-10T00:34:09;100141.56;;;15.21;97.54
3082;BME280;1551;51.046;7.010;2023-05-10T00:36:58;100149.09;;;15.25;97.79
3082;BME280;1551;51.046;7.010;2023-05-10T00:39:47;100139.47;;;15.30;97.95
3082;BME280;1551;51.046;7.010;2023-05-10T00:42:36;100149.00;;;15.28;97.11
3082;BME280;1551;51.046;7.010;2023-05-10T00:45:25;100154.34;;;15.24;97.71
3082;BME280;1551;51.046;7.010;2023-05-10T00:48:14;100142.41;;;15.21;97.53
3082;BME280;1551;51.046;7.010;2023-05-10T00:51:04;100142.81;;;15.32;97.88
3082;BME280;1551;51.046;7.010;2023-05-10T00:53:53;100132.56;;;15.31;98.10
3082;BME280;1551;51.046;7.010;2023-05-10T00:56:44;100143.25;;;15.43;98.07
3082;BME280;1551;51.046;7.010;2023-05-10T00:59:37;100144.09;;;15.44;97.73
3082;BME280;1551;51.046;7.010;2023-05-10T01:02:26;100147.56;;;15.43;97.44
3082;BME280;1551;51.046;7.010;2023-05-10T01:05:16;100152.84;;;15.40;97.78
3082;BME280;1551;51.046;7.010;2023-05-10T01:08:05;100153.06;;;15.34;98.26
3082;BME280;1551;51.046;7.010;2023-05-10T01:10:55;100152.97;;;15.37;97.69
3082;BME280;1551;51.046;7.010;2023-05-10T01:13:47;100152.25;;;15.33;98.06
3082;BME280;1551;51.046;7.010;2023-05-10T01:16:40;100151.50;;;15.30;98.17
3082;BME280;1551;51.046;7.010;2023-05-10T01:19:30;100153.81;;;15.37;98.33
3082;BME280;1551;51.046;7.010;2023-05-10T01:25:55;100151.25;;;15.36;97.86
3082;BME280;1551;51.046;7.010;2023-05-10T01:38:17;100157.16;;;15.39;98.07
3082;BME280;1551;51.046;7.010;2023-05-10T01:41:24;100160.53;;;15.41;98.40
3082;BME280;1551;51.046;7.010;2023-05-10T01:47:15;100158.00;;;15.40;97.69
3082;BME280;1551;51.046;7.010;2023-05-10T01:50:10;100162.38;;;15.38;97.72
3082;BME280;1551;51.046;7.010;2023-05-10T01:53:01;100172.13;;;15.30;96.93
3082;BME280;1551;51.046;7.010;2023-05-10T01:55:53;100160.09;;;15.30;97.22
3082;BME280;1551;51.046;7.010;2023-05-10T01:58:45;100159.41;;;15.25;97.49
3082;BME280;1551;51.046;7.010;2023-05-10T02:01:38;100163.03;;;15.21;96.92
3082;BME280;1551;51.046;7.010;2023-05-10T02:04:28;100158.81;;;15.19;97.24
3082;BME280;1551;51.046;7.010;2023-05-10T02:07:18;100161.44;;;15.17;97.01
3082;BME280;1551;51.046;7.010;2023-05-10T02:10:09;100160.47;;;15.20;97.15
3082;BME280;1551;51.046;7.010;2023-05-10T02:13:00;100160.38;;;15.23;97.35
3082;BME280;1551;51.046;7.010;2023-05-10T02:15:51;100172.59;;;15.18;96.68
3082;BME280;1551;51.046;7.010;2023-05-10T02:18:40;100168.34;;;15.17;97.03
3082;BME280;1551;51.046;7.010;2023-05-10T02:21:31;100177.84;;;15.14;96.62
3082;BME280;1551;51.046;7.010;2023-05-10T02:24:22;100170.84;;;15.18;96.76
3082;BME280;1551;51.046;7.010;2023-05-10T02:27:14;100177.84;;;15.14;96.48
3082;BME280;1551;51.046;7.010;2023-05-10T02:30:05;100176.09;;;15.17;96.69
3082;BME280;1551;51.046;7.010;2023-05-10T02:32:56;100176.91;;;15.17;96.06
3082;BME280;1551;51.046;7.010;2023-05-10T02:35:47;100183.19;;;15.10;96.52
3082;BME280;1551;51.046;7.010;2023-05-10T02:38:36;100181.00;;;14.99;96.05
3082;BME280;1551;51.046;7.010;2023-05-10T02:41:26;100195.56;;;15.00;96.98
3082;BME280;1551;51.046;7.010;2023-05-10T02:44:18;100196.97;;;15.09;97.00
3082;BME280;1551;51.046;7.010;2023-05-10T02:47:09;100183.19;;;15.10;96.58
3082;BME280;1551;51.046;7.010;2023-05-10T02:49:58;100193.31;;;15.14;96.64
3082;BME280;1551;51.046;7.010;2023-05-10T02:52:50;100194.91;;;15.19;96.77
3082;BME280;1551;51.046;7.010;2023-05-10T02:55:45;100195.84;;;15.16;96.69
3082;BME280;1551;51.046;7.010;2023-05-10T02:58:37;100195.50;;;15.25;96.35
3082;BME280;1551;51.046;7.010;2023-05-10T03:01:26;100199.78;;;15.26;96.48
3082;BME280;1551;51.046;7.010;2023-05-10T03:04:15;100205.81;;;15.25;96.36
3082;BME280;1551;51.046;7.010;2023-05-10T03:07:04;100191.31;;;15.23;96.34
3082;BME280;1551;51.046;7.010;2023-05-10T03:09:53;100187.34;;;15.37;97.05
3082;BME280;1551;51.046;7.010;2023-05-10T03:12:49;100193.09;;;15.44;97.09
3082;BME280;1551;51.046;7.010;2023-05-10T03:16:15;100188.53;;;15.52;97.00
3082;BME280;1551;51.046;7.010;2023-05-10T03:19:37;100192.59;;;15.57;96.38
3082;BME280;1551;51.046;7.010;2023-05-10T03:26:09;100192.94;;;15.48;95.20
3082;BME280;1551;51.046;7.010;2023-05-10T03:29:01;100204.22;;;15.46;95.00
3082;BME280;1551;51.046;7.010;2023-05-10T03:31:51;100182.38;;;15.31;94.60
3082;BME280;1551;51.046;7.010;2023-05-10T03:34:43;100211.91;;;15.47;94.93
3082;BME280;1551;51.046;7.010;2023-05-10T03:37:33;100215.97;;;15.53;95.44
3082;BME280;1551;51.046;7.010;2023-05-10T03:40:23;100213.28;;;15.56;95.51
3082;BME280;1551;51.046;7.010;2023-05-10T03:43:12;100212.88;;;15.66;95.73
3082;BME280;1551;51.046;7.010;2023-05-10T03:46:05;100210.25;;;15.68;95.75
3082;BME280;1551;51.046;7.010;2023-05-10T03:48:54;100218.03;;;15.66;95.28
3082;BME280;1551;51.046;7.010;2023-05-10T03:51:43;100211.91;;;15.69;95.98
3082;BME280;1551;51.046;7.010;2023-05-10T03:54:32;100211.88;;;15.70;94.96
3082;BME280;1551;51.046;7.010;2023-05-10T03:57:21;100221.09;;;15.76;94.96
3082;BME280;1551;51.046;7.010;2023-05-10T04:00:11;100211.03;;;15.70;94.91
3082;BME280;1551;51.046;7.010;2023-05-10T04:03:03;100224.59;;;15.75;94.25
3082;BME280;1551;51.046;7.010;2023-05-10T04:06:02;100220.25;;;15.75;94.67
3082;BME280;1551;51.046;7.010;2023-05-10T04:08:51;100215.28;;;15.71;93.93
3082;BME280;1551;51.046;7.010;2023-05-10T04:11:40;100227.03;;;15.78;93.70
3082;BME280;1551;51.046;7.010;2023-05-10T04:14:29;100212.50;;;15.75;94.46
3082;BME280;1551;51.046;7.010;2023-05-10T04:17:18;100222.72;;;15.78;93.84
3082;BME280;1551;51.046;7.010;2023-05-10T04:20:07;100214.47;;;15.70;94.65
3082;BME280;1551;51.046;7.010;2023-05-10T04:22:56;100216.22;;;15.68;94.28
3082;BME280;1551;51.046;7.010;2023-05-10T04:25:45;100211.75;;;15.73;94.43
3082;BME280;1551;51.046;7.010;2023-05-10T04:28:34;100215.66;;;15.83;93.94
3082;BME280;1551;51.046;7.010;2023-05-10T04:31:24;100208.94;;;15.79;93.79
3082;BME280;1551;51.046;7.010;2023-05-10T04:34:13;100208.94;;;15.79;94.05
3082;BME280;1551;51.046;7.010;2023-05-10T04:37:02;100211.88;;;15.70;93.32
3082;BME280;1551;51.046;7.010;2023-05-10T04:39:51;100229.13;;;15.68;93.48
3082;BME280;1551;51.046;7.010;2023-05-10T04:42:40;100230.50;;;15.55;94.19
3082;BME280;1551;51.046;7.010;2023-05-10T04:45:30;100231.28;;;15.57;94.70
3082;BME280;1551;51.046;7.010;2023-05-10T04:48:19;100210.28;;;15.43;94.89
3082;BME280;1551;51.046;7.010;2023-05-10T04:51:08;100228.09;;;15.51;94.60
3082;BME280;1551;51.046;7.010;2023-05-10T04:53:57;100234.31;;;15.45;94.29
3082;BME280;1551;51.046;7.010;2023-05-10T04:56:46;100242.19;;;15.41;94.63
3082;BME280;1551;51.046;7.010;2023-05-10T04:59:36;100243.22;;;15.37;94.70
3082;BME280;1551;51.046;7.010;2023-05-10T05:02:22;100246.06;;;15.29;95.30
3082;BME280;1551;51.046;7.010;2023-05-10T05:05:12;100241.25;;;15.43;95.19
3082;BME280;1551;51.046;7.010;2023-05-10T05:08:01;100242.03;;;15.47;95.05
3082;BME280;1551;51.046;7.010;2023-05-10T05:10:50;100242.91;;;15.46;94.79
3082;BME280;1551;51.046;7.010;2023-05-10T05:13:39;100258.50;;;15.41;95.25
3082;BME280;1551;51.046;7.010;2023-05-10T05:16:30;100247.53;;;15.36;95.27
3082;BME280;1551;51.046;7.010;2023-05-10T05:19:19;100270.72;;;15.36;94.98
3082;BME280;1551;51.046;7.010;2023-05-10T05:22:08;100272.94;;;15.24;95.67
3082;BME280;1551;51.046;7.010;2023-05-10T05:24:57;100268.75;;;15.20;95.72
3082;BME280;1551;51.046;7.010;2023-05-10T05:27:51;100266.66;;;15.31;95.65
3082;BME280;1551;51.046;7.010;2023-05-10T05:30:40;100268.31;;;15.32;95.75
3082;BME280;1551;51.046;7.010;2023-05-10T05:33:28;100276.97;;;15.31;95.23
3082;BME280;1551;51.046;7.010;2023-05-10T05:36:18;100259.09;;;15.26;95.15
3082;BME280;1551;51.046;7.010;2023-05-10T05:39:07;100279.00;;;15.46;94.89
3082;BME280;1551;51.046;7.010;2023-05-10T05:41:55;100278.25;;;15.42;95.14
3082;BME280;1551;51.046;7.010;2023-05-10T05:44:44;100290.31;;;15.42;94.37
3082;BME280;1551;51.046;7.010;2023-05-10T05:47:33;100288.84;;;15.35;93.99
3082;BME280;1551;51.046;7.010;2023-05-10T05:50:22;100292.13;;;15.38;94.37
3082;BME280;1551;51.046;7.010;2023-05-10T05:53:11;100292.66;;;15.49;94.03
3082;BME280;1551;51.046;7.010;2023-05-10T05:56:00;100294.44;;;15.47;93.28
3082;BME280;1551;51.046;7.010;2023-05-10T05:58:50;100299.44;;;15.52;93.86
3082;BME280;1551;51.046;7.010;2023-05-10T06:01:39;100297.63;;;15.54;93.62
3082;BME280;1551;51.046;7.010;2023-05-10T06:04:28;100302.84;;;15.52;92.90
3082;BME280;1551;51.046;7.010;2023-05-10T06:07:16;100293.63;;;15.45;92.94
3082;BME280;1551;51.046;7.010;2023-05-10T06:10:06;100299.31;;;15.55;92.87
3082;BME280;1551;51.046;7.010;2023-05-10T06:12:55;100307.00;;;15.56;92.13
3082;BME280;1551;51.046;7.010;2023-05-10T06:15:45;100313.28;;;15.49;92.24
3082;BME280;1551;51.046;7.010;2023-05-10T06:18:33;100318.06;;;15.35;92.23
3082;BME280;1551;51.046;7.010;2023-05-10T06:21:23;100323.06;;;15.40;91.99
3082;BME280;1551;51.046;7.010;2023-05-10T06:24:12;100305.97;;;15.36;91.88
3082;BME280;1551;51.046;7.010;2023-05-10T06:27:01;100322.91;;;15.44;91.25
3082;BME280;1551;51.046;7.010;2023-05-10T06:29:50;100328.63;;;15.52;91.86
3082;BME280;1551;51.046;7.010;2023-05-10T06:32:39;100327.56;;;15.58;91.94
3082;BME280;1551;51.046;7.010;2023-05-10T06:35:28;100327.75;;;15.53;91.69
3082;BME280;1551;51.046;7.010;2023-05-10T06:38:17;100333.63;;;15.57;91.26
3082;BME280;1551;51.046;7.010;2023-05-10T06:41:06;100335.38;;;15.56;91.12
3082;BME280;1551;51.046;7.010;2023-05-10T06:43:55;100339.63;;;15.57;91.11
3082;BME280;1551;51.046;7.010;2023-05-10T06:46:44;100338.94;;;15.52;90.97
3082;BME280;1551;51.046;7.010;2023-05-10T06:49:33;100344.06;;;15.54;91.38
3082;BME280;1551;51.046;7.010;2023-05-10T06:52:22;100345.13;;;15.48;91.18
3082;BME280;1551;51.046;7.010;2023-05-10T06:55:12;100355.50;;;15.47;91.51
3082;BME280;1551;51.046;7.010;2023-05-10T06:58:01;100348.66;;;15.46;92.01
3082;BME280;1551;51.046;7.010;2023-05-10T07:00:50;100344.34;;;15.46;91.78
3082;BME280;1551;51.046;7.010;2023-05-10T07:03:39;100331.22;;;15.28;92.10
3082;BME280;1551;51.046;7.010;2023-05-10T07:06:29;100355.03;;;15.34;92.51
3082;BME280;1551;51.046;7.010;2023-05-10T07:09:18;100356.78;;;15.34;92.98
3082;BME280;1551;51.046;7.010;2023-05-10T07:12:07;100353.56;;;15.27;93.51
3082;BME280;1551;51.046;7.010;2023-05-10T07:14:56;100358.94;;;15.47;93.77
3082;BME280;1551;51.046;7.010;2023-05-10T07:17:45;100355.38;;;15.50;94.02
3082;BME280;1551;51.046;7.010;2023-05-10T07:20:34;100347.38;;;15.33;93.41
3082;BME280;1551;51.046;7.010;2023-05-10T07:23:23;100359.19;;;15.38;94.15
3082;BME280;1551;51.046;7.010;2023-05-10T07:26:12;100363.97;;;15.50;93.89
3082;BME280;1551;51.046;7.010;2023-05-10T07:29:01;100364.47;;;15.60;94.00
3082;BME280;1551;51.046;7.010;2023-05-10T07:31:50;100360.94;;;15.62;93.55
3082;BME280;1551;51.046;7.010;2023-05-10T07:34:39;100365.59;;;15.53;93.92
3082;BME280;1551;51.046;7.010;2023-05-10T07:37:28;100371.34;;;15.61;94.78
3082;BME280;1551;51.046;7.010;2023-05-10T07:40:17;100368.44;;;15.68;95.71
3082;BME280;1551;51.046;7.010;2023-05-10T07:43:06;100377.63;;;16.00;96.34
3082;BME280;1551;51.046;7.010;2023-05-10T07:45:55;100370.13;;;16.61;96.69
3082;BME280;1551;51.046;7.010;2023-05-10T07:48:46;100375.97;;;16.42;94.34
3082;BME280;1551;51.046;7.010;2023-05-10T07:51:35;100371.41;;;16.49;93.50
3082;BME280;1551;51.046;7.010;2023-05-10T07:54:24;100375.09;;;16.65;93.59
3082;BME280;1551;51.046;7.010;2023-05-10T07:57:13;100371.38;;;16.72;92.30
3082;BME280;1551;51.046;7.010;2023-05-10T08:00:04;100368.38;;;16.83;90.37
3082;BME280;1551;51.046;7.010;2023-05-10T08:03:02;100379.41;;;16.65;89.13
3082;BME280;1551;51.046;7.010;2023-05-10T08:05:51;100378.06;;;16.56;89.60
3082;BME280;1551;51.046;7.010;2023-05-10T08:08:40;100375.53;;;16.96;90.38
3082;BME280;1551;51.046;7.010;2023-05-10T08:11:30;100379.03;;;17.36;88.89
3082;BME280;1551;51.046;7.010;2023-05-10T08:14:19;100382.22;;;17.02;86.04
3082;BME280;1551;51.046;7.010;2023-05-10T08:17:09;100380.31;;;16.85;86.22
3082;BME280;1551;51.046;7.010;2023-05-10T08:19:57;100388.97;;;16.84;86.00
3082;BME280;1551;51.046;7.010;2023-05-10T08:22:46;100386.00;;;16.93;86.94
3082;BME280;1551;51.046;7.010;2023-05-10T08:25:35;100391.66;;;16.81;86.38
3082;BME280;1551;51.046;7.010;2023-05-10T08:28:24;100385.97;;;16.52;86.30
3082;BME280;1551;51.046;7.010;2023-05-10T08:31:14;100389.28;;;16.32;86.56
3082;BME280;1551;51.046;7.010;2023-05-10T08:34:03;100385.25;;;16.25;87.53
3082;BME280;1551;51.046;7.010;2023-05-10T08:36:52;100394.28;;;16.36;88.17
3082;BME280;1551;51.046;7.010;2023-05-10T08:39:41;100396.72;;;16.41;88.44
3082;BME280;1551;51.046;7.010;2023-05-10T08:42:34;100405.91;;;16.48;88.84
3082;BME280;1551;51.046;7.010;2023-05-10T08:45:25;100401.09;;;17.04;90.41
3082;BME280;1551;51.046;7.010;2023-05-10T08:48:16;100402.25;;;17.77;88.17
3082;BME280;1551;51.046;7.010;2023-05-10T08:51:05;100413.38;;;17.79;85.88
3082;BME280;1551;51.046;7.010;2023-05-10T08:53:55;100410.72;;;17.81;84.22
3082;BME280;1551;51.046;7.010;2023-05-10T08:56:44;100415.31;;;17.14;83.59
3082;BME280;1551;51.046;7.010;2023-05-10T08:59:33;100415.94;;;16.99;84.54
3082;BME280;1551;51.046;7.010;2023-05-10T09:02:23;100421.72;;;16.84;84.21
3082;BME280;1551;51.046;7.010;2023-05-10T09:05:12;100411.38;;;16.84;85.48
3082;BME280;1551;51.046;7.010;2023-05-10T09:08:01;100424.03;;;17.11;85.27
3082;BME280;1551;51.046;7.010;2023-05-10T09:10:50;100422.88;;;17.18;84.74
3082;BME280;1551;51.046;7.010;2023-05-10T09:13:39;100427.22;;;17.18;83.84
3082;BME280;1551;51.046;7.010;2023-05-10T09:16:29;100420.88;;;17.45;84.89
3082;BME280;1551;51.046;7.010;2023-05-10T09:19:18;100424.97;;;17.71;84.20
3082;BME280;1551;51.046;7.010;2023-05-10T09:22:07;100429.88;;;18.16;82.09
3082;BME280;1551;51.046;7.010;2023-05-10T09:25:10;100428.25;;;18.13;80.00
3082;BME280;1551;51.046;7.010;2023-05-10T09:27:59;100433.16;;;18.19;80.18
3082;BME280;1551;51.046;7.010;2023-05-10T09:30:53;100440.66;;;18.07;79.82
3082;BME280;1551;51.046;7.010;2023-05-10T09:33:47;100438.81;;;17.90;79.54
3082;BME280;1551;51.046;7.010;2023-05-10T09:36:36;100443.31;;;17.66;80.13
3082;BME280;1551;51.046;7.010;2023-05-10T09:39:33;100449.06;;;17.53;79.85
3082;BME280;1551;51.046;7.010;2023-05-10T09:42:22;100455.41;;;17.66;80.94
3082;BME280;1551;51.046;7.010;2023-05-10T09:45:11;100453.00;;;17.81;80.95
3082;BME280;1551;51.046;7.010;2023-05-10T09:48:01;100456.63;;;18.16;80.87
3082;BME280;1551;51.046;7.010;2023-05-10T09:50:57;100453.53;;;18.08;79.68
3082;BME280;1551;51.046;7.010;2023-05-10T09:53:47;100461.81;;;18.16;80.40
3082;BME280;1551;51.046;7.010;2023-05-10T09:56:37;100454.88;;;17.98;80.29
3082;BME280;1551;51.046;7.010;2023-05-10T09:59:29;100460.78;;;17.81;80.95
3082;BME280;1551;51.046;7.010;2023-05-10T10:02:18;100461.69;;;17.99;81.41
3082;BME280;1551;51.046;7.010;2023-05-10T10:05:08;100472.16;;;17.77;81.27
3082;BME280;1551;51.046;7.010;2023-05-10T10:07:58;100466.56;;;18.07;82.63
3082;BME280;1551;51.046;7.010;2023-05-10T10:10:47;100461.50;;;18.04;80.44
3082;BME280;1551;51.046;7.010;2023-05-10T10:13:36;100464.09;;;18.04;80.45
3082;BME280;1551;51.046;7.010;2023-05-10T10:16:27;100471.41;;;17.94;80.47
3082;BME280;1551;51.046;7.010;2023-05-10T10:19:20;100472.53;;;17.68;80.94
3082;BME280;1551;51.046;7.010;2023-05-10T10:22:10;100467.38;;;17.89;81.39
3082;BME280;1551;51.046;7.010;2023-05-10T10:25:00;100465.75;;;17.86;79.96
3082;BME280;1551;51.046;7.010;2023-05-10T10:30:43;100470.94;;;17.86;78.90
3082;BME280;1551;51.046;7.010;2023-05-10T10:33:56;100465.94;;;17.81;79.46
3082;BME280;1551;51.046;7.010;2023-05-10T10:36:48;100474.09;;;17.93;79.20
3082;BME280;1551;51.046;7.010;2023-05-10T10:39:37;100469.00;;;18.10;78.84
3082;BME280;1551;51.046;7.010;2023-05-10T10:42:44;100467.41;;;18.26;78.97
3082;BME280;1551;51.046;7.010;2023-05-10T10:45:39;100481.69;;;18.34;78.27
3082;BME280;1551;51.046;7.010;2023-05-10T10:48:28;100473.03;;;17.97;78.10
3082;BME280;1551;51.046;7.010;2023-05-10T10:51:17;100472.38;;;17.92;78.14
3082;BME280;1551;51.046;7.010;2023-05-10T10:54:10;100467.63;;;17.82;78.67
3082;BME280;1551;51.046;7.010;2023-05-10T10:57:12;100482.91;;;17.68;78.01
3082;BME280;1551;51.046;7.010;2023-05-10T11:03:13;100482.16;;;18.05;78.14
3082;BME280;1551;51.046;7.010;2023-05-10T11:06:03;100484.00;;;18.40;77.08
3082;BME280;1551;51.046;7.010;2023-05-10T11:08:52;100491.72;;;18.23;75.70
3082;BME280;1551;51.046;7.010;2023-05-10T11:11:52;100487.97;;;18.49;74.21
3082;BME280;1551;51.046;7.010;2023-05-10T11:14:49;100490.31;;;19.27;73.81
3082;BME280;1551;51.046;7.010;2023-05-10T11:17:39;100482.56;;;20.75;68.60
3082;BME280;1551;51.046;7.010;2023-05-10T11:20:28;100483.59;;;20.24;66.27
3082;BME280;1551;51.046;7.010;2023-05-10T11:23:22;100494.13;;;19.19;68.77
3082;BME280;1551;51.046;7.010;2023-05-10T11:26:11;100489.22;;;18.78;70.74
3082;BME280;1551;51.046;7.010;2023-05-10T11:29:01;100493.38;;;18.63;71.47
3082;BME280;1551;51.046;7.010;2023-05-10T11:31:50;100498.25;;;18.50;72.19
3082;BME280;1551;51.046;7.010;2023-05-10T11:34:39;100500.09;;;18.48;72.10
3082;BME280;1551;51.046;7.010;2023-05-10T11:37:28;100495.81;;;18.47;72.06
3082;BME280;1551;51.046;7.010;2023-05-10T11:40:24;100504.69;;;18.42;72.81
3082;BME280;1551;51.046;7.010;2023-05-10T11:43:13;100508.50;;;18.53;72.00
3082;BME280;1551;51.046;7.010;2023-05-10T11:46:03;100511.22;;;18.12;72.22
3082;BME280;1551;51.046;7.010;2023-05-10T11:48:54;100508.09;;;18.24;73.47
3082;BME280;1551;51.046;7.010;2023-05-10T11:51:43;100503.66;;;18.46;72.60
3082;BME280;1551;51.046;7.010;2023-05-10T11:54:32;100507.19;;;18.43;72.67
3082;BME280;1551;51.046;7.010;2023-05-10T11:57:26;100517.59;;;18.81;73.67
3082;BME280;1551;51.046;7.010;2023-05-10T12:00:15;100511.41;;;19.38;72.39
3082;BME280;1551;51.046;7.010;2023-05-10T12:03:05;100505.53;;;19.85;71.35
3082;BME280;1551;51.046;7.010;2023-05-10T12:05:55;100513.41;;;20.49;69.11
3082;BME280;1551;51.046;7.010;2023-05-10T12:08:48;100510.66;;;20.52;66.88
3082;BME280;1551;51.046;7.010;2023-05-10T12:11:42;100510.81;;;20.49;66.29
3082;BME280;1551;51.046;7.010;2023-05-10T12:14:34;100522.59;;;20.88;65.06
3082;BME280;1551;51.046;7.010;2023-05-10T12:17:27;100517.38;;;20.88;63.61
3082;BME280;1551;51.046;7.010;2023-05-10T12:20:24;100513.72;;;21.07;63.95
3082;BME280;1551;51.046;7.010;2023-05-10T12:23:13;100513.44;;;21.12;61.66
3082;BME280;1551;51.046;7.010;2023-05-10T12:26:03;100519.41;;;21.44;60.36
3082;BME280;1551;51.046;7.010;2023-05-10T12:29:11;100525.72;;;21.85;58.53
3082;BME280;1551;51.046;7.010;2023-05-10T12:32:00;100515.31;;;21.83;58.22
3082;BME280;1551;51.046;7.010;2023-05-10T12:34:52;100524.47;;;21.31;57.49
3082;BME280;1551;51.046;7.010;2023-05-10T12:37:43;100532.09;;;21.50;57.50
3082;BME280;1551;51.046;7.010;2023-05-10T12:40:32;100522.00;;;22.45;56.47
3082;BME280;1551;51.046;7.010;2023-05-10T12:43:21;100527.97;;;22.33;56.13
3082;BME280;1551;51.046;7.010;2023-05-10T12:46:12;100526.38;;;22.03;56.22
3082;BME280;1551;51.046;7.010;2023-05-10T12:49:01;100525.38;;;21.75;55.68
3082;BME280;1551;51.046;7.010;2023-05-10T12:51:50;100533.22;;;20.99;57.60
3082;BME280;1551;51.046;7.010;2023-05-10T12:54:39;100534.59;;;21.06;57.67
3082;BME280;1551;51.046;7.010;2023-05-10T12:57:28;100536.22;;;21.38;55.83
3082;BME280;1551;51.046;7.010;2023-05-10T13:00:18;100530.78;;;21.43;55.94
3082;BME280;1551;51.046;7.010;2023-05-10T13:03:07;100530.66;;;21.74;56.11
3082;BME280;1551;51.046;7.010;2023-05-10T13:05:56;100537.84;;;21.55;55.17
3082;BME280;1551;51.046;7.010;2023-05-10T13:08:45;100538.09;;;20.89;55.66
3082;BME280;1551;51.046;7.010;2023-05-10T13:11:34;100540.75;;;20.56;57.71
3082;BME280;1551;51.046;7.010;2023-05-10T13:14:24;100536.34;;;20.90;58.47
3082;BME280;1551;51.046;7.010;2023-05-10T13:17:13;100536.19;;;21.24;57.39
3082;BME280;1551;51.046;7.010;2023-05-10T13:20:02;100533.13;;;21.47;56.08
3082;BME280;1551;51.046;7.010;2023-05-10T13:22:52;100528.69;;;21.63;55.92
3082;BME280;1551;51.046;7.010;2023-05-10T13:25:41;100532.47;;;21.87;55.90
3082;BME280;1551;51.046;7.010;2023-05-10T13:28:30;100531.38;;;21.62;54.62
3082;BME280;1551;51.046;7.010;2023-05-10T13:31:19;100543.63;;;21.75;55.69
3082;BME280;1551;51.046;7.010;2023-05-10T13:34:08;100533.66;;;22.26;55.30
3082;BME280;1551;51.046;7.010;2023-05-10T13:36:57;100531.22;;;22.65;54.49
3082;BME280;1551;51.046;7.010;2023-05-10T13:39:45;100530.28;;;22.52;54.05
3082;BME280;1551;51.046;7.010;2023-05-10T13:42:34;100525.81;;;22.12;54.02
3082;BME280;1551;51.046;7.010;2023-05-10T13:45:23;100527.88;;;22.63;54.46
3082;BME280;1551;51.046;7.010;2023-05-10T13:48:12;100532.16;;;22.78;52.76
3082;BME280;1551;51.046;7.010;2023-05-10T13:51:01;100538.09;;;22.52;53.67
3082;BME280;1551;51.046;7.010;2023-05-10T13:53:52;100531.91;;;22.95;52.53
3082;BME280;1551;51.046;7.010;2023-05-10T13:56:41;100537.53;;;22.89;52.33
3082;BME280;1551;51.046;7.010;2023-05-10T13:59:31;100531.38;;;23.44;52.17
3082;BME280;1551;51.046;7.010;2023-05-10T14:02:20;100530.03;;;23.51;51.91
3082;BME280;1551;51.046;7.010;2023-05-10T14:05:10;100515.25;;;22.84;51.01
3082;BME280;1551;51.046;7.010;2023-05-10T14:07:59;100523.03;;;22.71;54.07
3082;BME280;1551;51.046;7.010;2023-05-10T14:10:48;100518.72;;;22.56;55.20
3082;BME280;1551;51.046;7.010;2023-05-10T14:13:37;100519.56;;;22.42;55.94
3082;BME280;1551;51.046;7.010;2023-05-10T14:16:27;100515.94;;;22.59;56.50
3082;BME280;1551;51.046;7.010;2023-05-10T14:19:16;100523.22;;;23.21;55.29
3082;BME280;1551;51.046;7.010;2023-05-10T14:22:06;100511.97;;;22.94;54.82
3082;BME280;1551;51.046;7.010;2023-05-10T14:24:56;100512.75;;;22.54;55.77
3082;BME280;1551;51.046;7.010;2023-05-10T14:27:46;100520.16;;;22.19;56.69
3082;BME280;1551;51.046;7.010;2023-05-10T14:30:35;100521.53;;;21.67;58.45
3082;BME280;1551;51.046;7.010;2023-05-10T14:33:25;100522.16;;;21.56;58.86
3082;BME280;1551;51.046;7.010;2023-05-10T14:36:14;100522.78;;;21.46;59.71
3082;BME280;1551;51.046;7.010;2023-05-10T14:39:03;100520.63;;;21.52;59.81
3082;BME280;1551;51.046;7.010;2023-05-10T14:41:53;100524.16;;;21.37;59.16
3082;BME280;1551;51.046;7.010;2023-05-10T14:44:43;100529.97;;;20.95;61.24
3082;BME280;1551;51.046;7.010;2023-05-10T14:47:32;100525.25;;;21.02;61.53
3082;BME280;1551;51.046;7.010;2023-05-10T14:50:21;100521.53;;;21.07;61.67
3082;BME280;1551;51.046;7.010;2023-05-10T14:53:10;100530.78;;;21.27;62.87
3082;BME280;1551;51.046;7.010;2023-05-10T14:55:59;100524.19;;;21.21;62.24
3082;BME280;1551;51.046;7.010;2023-05-10T14:58:50;100513.28;;;20.84;60.78
3082;BME280;1551;51.046;7.010;2023-05-10T15:01:38;100526.84;;;20.73;61.65
3082;BME280;1551;51.046;7.010;2023-05-10T15:04:29;100518.31;;;20.55;62.06
3082;BME280;1551;51.046;7.010;2023-05-10T15:07:19;100508.03;;;20.37;61.68
3082;BME280;1551;51.046;7.010;2023-05-10T15:10:08;100515.16;;;20.33;62.93
3082;BME280;1551;51.046;7.010;2023-05-10T15:12:57;100515.31;;;20.30;63.37
3082;BME280;1551;51.046;7.010;2023-05-10T15:15:47;100518.22;;;20.07;62.17
3082;BME280;1551;51.046;7.010;2023-05-10T15:18:36;100511.38;;;20.06;62.42
3082;BME280;1551;51.046;7.010;2023-05-10T15:21:25;100517.09;;;19.96;63.22
3082;BME280;1551;51.046;7.010;2023-05-10T15:24:14;100510.19;;;20.12;64.80
3082;BME280;1551;51.046;7.010;2023-05-10T15:27:03;100520.69;;;20.27;64.74
3082;BME280;1551;51.046;7.010;2023-05-10T15:29:52;100520.72;;;20.43;65.28
3082;BME280;1551;51.046;7.010;2023-05-10T15:32:42;100519.06;;;20.58;65.39
3082;BME280;1551;51.046;7.010;2023-05-10T15:35:31;100528.00;;;20.52;65.18
3082;BME280;1551;51.046;7.010;2023-05-10T15:38:21;100521.56;;;20.59;64.64